sensor_id;sensor_type;location;lat;lon;timestamp;P1;durP1;ratioP1;P2;durP2;ratioP2
48871;SDS011;36154;51.674;7.824;2023-11-19T00:00:59;0.52;;;0.13;;
48871;SDS011;36154;51.674;7.824;2023-11-19T00:03:25;0.10;;;0.10;;
48871;SDS011;36154;51.674;7.824;2023-11-19T00:05:50;0.20;;;0.20;;
48871;SDS011;36154;51.674;7.824;2023-11-19T00:08:15;0.15;;;0.15;;
48871;SDS011;36154;51.674;7.824;2023-11-19T00:10:41;0.30;;;0.30;;
48871;SDS011;36154;51.674;7.824;2023-11-19T00:13:06;0.10;;;0.10;;
48871;SDS011;36154;51.674;7.824;2023-11-19T00:15:32;0.20;;;0.20;;
48871;SDS011;36154;51.674;7.824;2023-11-19T00:17:57;0.20;;;0.10;;
48871;SDS011;36154;51.674;7.824;2023-11-19T00:20:22;0.10;;;0.10;;
48871;SDS011;36154;51.674;7.824;2023-11-19T00:22:48;0.10;;;0.10;;
48871;SDS011;36154;51.674;7.824;2023-11-19T00:25:16;1.58;;;0.28;;
48871;SDS011;36154;51.674;7.824;2023-11-19T00:27:41;0.50;;;0.50;;
48871;SDS011;36154;51.674;7.824;2023-11-19T00:30:09;0.30;;;0.30;;
48871;SDS011;36154;51.674;7.824;2023-11-19T00:32:35;0.38;;;0.38;;
48871;SDS011;36154;51.674;7.824;2023-11-19T00:35:03;0.32;;;0.30;;
48871;SDS011;36154;51.674;7.824;2023-11-19T00:37:29;0.40;;;0.40;;
48871;SDS011;36154;51.674;7.824;2023-11-19T00:39:54;0.35;;;0.35;;
48871;SDS011;36154;51.674;7.824;2023-11-19T00:42:21;0.22;;;0.22;;
48871;SDS011;36154;51.674;7.824;2023-11-19T00:44:46;0.65;;;0.65;;
48871;SDS011;36154;51.674;7.824;2023-11-19T00:47:12;0.95;;;0.20;;
48871;SDS011;36154;51.674;7.824;2023-11-19T00:49:37;0.43;;;0.43;;
48871;SDS011;36154;51.674;7.824;2023-11-19T00:52:02;0.15;;;0.15;;
48871;SDS011;36154;51.674;7.824;2023-11-19T00:54:28;0.30;;;0.30;;
48871;SDS011;36154;51.674;7.824;2023-11-19T00:56:53;0.20;;;0.20;;
48871;SDS011;36154;51.674;7.824;2023-11-19T00:59:19;0.38;;;0.20;;
48871;SDS011;36154;51.674;7.824;2023-11-19T01:01:44;0.20;;;0.20;;
48871;SDS011;36154;51.674;7.824;2023-11-19T01:04:10;0.20;;;0.20;;
48871;SDS011;36154;51.674;7.824;2023-11-19T01:06:35;0.10;;;0.10;;
48871;SDS011;36154;51.674;7.824;2023-11-19T01:09:01;0.30;;;0.30;;
48871;SDS011;36154;51.674;7.824;2023-11-19T01:11:26;0.20;;;0.20;;
48871;SDS011;36154;51.674;7.824;2023-11-19T01:13:51;0.10;;;0.10;;
48871;SDS011;36154;51.674;7.824;2023-11-19T01:16:17;0.13;;;0.13;;
48871;SDS011;36154;51.674;7.824;2023-11-19T01:18:43;0.20;;;0.20;;
48871;SDS011;36154;51.674;7.824;2023-11-19T01:21:12;0.20;;;0.20;;
48871;SDS011;36154;51.674;7.824;2023-11-19T01:23:39;0.17;;;0.17;;
48871;SDS011;36154;51.674;7.824;2023-11-19T01:26:05;0.10;;;0.10;;
48871;SDS011;36154;51.674;7.824;2023-11-19T01:28:30;0.20;;;0.20;;
48871;SDS011;36154;51.674;7.824;2023-11-19T01:30:56;0.10;;;0.10;;
48871;SDS011;36154;51.674;7.824;2023-11-19T01:33:21;0.10;;;0.10;;
48871;SDS011;36154;51.674;7.824;2023-11-19T01:35:46;1.48;;;0.20;;
48871;SDS011;36154;51.674;7.824;2023-11-19T01:38:11;0.10;;;0.10;;
48871;SDS011;36154;51.674;7.824;2023-11-19T01:40:37;0.20;;;0.20;;
48871;SDS011;36154;51.674;7.824;2023-11-19T01:43:02;0.10;;;0.10;;
48871;SDS011;36154;51.674;7.824;2023-11-19T01:45:29;0.20;;;0.20;;
48871;SDS011;36154;51.674;7.824;2023-11-19T01:47:58;0.20;;;0.20;;
48871;SDS011;36154;51.674;7.824;2023-11-19T01:50:28;0.17;;;0.17;;
48871;SDS011;36154;51.674;7.824;2023-11-19T01:52:55;0.10;;;0.10;;
48871;SDS011;36154;51.674;7.824;2023-11-19T01:55:22;0.20;;;0.20;;
48871;SDS011;36154;51.674;7.824;2023-11-19T01:57:49;0.20;;;0.20;;
48871;SDS011;36154;51.674;7.824;2023-11-19T02:00:15;0.10;;;0.10;;
48871;SDS011;36154;51.674;7.824;2023-11-19T02:02:41;0.20;;;0.20;;
48871;SDS011;36154;51.674;7.824;2023-11-19T02:05:08;0.15;;;0.15;;
48871;SDS011;36154;51.674;7.824;2023-11-19T02:07:35;0.15;;;0.15;;
48871;SDS011;36154;51.674;7.824;2023-11-19T02:10:00;0.13;;;0.13;;
48871;SDS011;36154;51.674;7.824;2023-11-19T02:12:27;0.20;;;0.20;;
48871;SDS011;36154;51.674;7.824;2023-11-19T02:14:59;0.20;;;0.20;;
48871;SDS011;36154;51.674;7.824;2023-11-19T02:17:28;0.20;;;0.20;;
48871;SDS011;36154;51.674;7.824;2023-11-19T02:19:56;0.10;;;0.10;;
48871;SDS011;36154;51.674;7.824;2023-11-19T02:22:21;0.10;;;0.10;;
48871;SDS011;36154;51.674;7.824;2023-11-19T02:24:47;0.20;;;0.20;;
48871;SDS011;36154;51.674;7.824;2023-11-19T02:27:19;0.20;;;0.20;;
48871;SDS011;36154;51.674;7.824;2023-11-19T02:29:54;0.10;;;0.10;;
48871;SDS011;36154;51.674;7.824;2023-11-19T02:32:19;0.15;;;0.15;;
48871;SDS011;36154;51.674;7.824;2023-11-19T02:34:45;0.10;;;0.10;;
48871;SDS011;36154;51.674;7.824;2023-11-19T02:37:10;0.10;;;0.10;;
48871;SDS011;36154;51.674;7.824;2023-11-19T02:39:36;0.10;;;0.10;;
48871;SDS011;36154;51.674;7.824;2023-11-19T02:42:01;0.10;;;0.10;;
48871;SDS011;36154;51.674;7.824;2023-11-19T02:44:27;0.15;;;0.15;;
48871;SDS011;36154;51.674;7.824;2023-11-19T02:46:55;0.10;;;0.10;;
48871;SDS011;36154;51.674;7.824;2023-11-19T02:49:24;0.10;;;0.10;;
48871;SDS011;36154;51.674;7.824;2023-11-19T02:51:49;0.20;;;0.20;;
48871;SDS011;36154;51.674;7.824;2023-11-19T02:54:14;0.20;;;0.17;;
48871;SDS011;36154;51.674;7.824;2023-11-19T02:56:42;0.10;;;0.10;;
48871;SDS011;36154;51.674;7.824;2023-11-19T02:59:07;0.10;;;0.10;;
48871;SDS011;36154;51.674;7.824;2023-11-19T03:01:40;0.20;;;0.20;;
48871;SDS011;36154;51.674;7.824;2023-11-19T03:04:08;0.10;;;0.10;;
48871;SDS011;36154;51.674;7.824;2023-11-19T03:06:37;0.15;;;0.15;;
48871;SDS011;36154;51.674;7.824;2023-11-19T03:09:02;0.15;;;0.15;;
48871;SDS011;36154;51.674;7.824;2023-11-19T03:11:35;0.10;;;0.10;;
48871;SDS011;36154;51.674;7.824;2023-11-19T03:14:00;0.10;;;0.10;;
48871;SDS011;36154;51.674;7.824;2023-11-19T03:16:25;0.10;;;0.10;;
48871;SDS011;36154;51.674;7.824;2023-11-19T03:18:50;0.20;;;0.20;;
48871;SDS011;36154;51.674;7.824;2023-11-19T03:21:16;0.10;;;0.10;;
48871;SDS011;36154;51.674;7.824;2023-11-19T03:23:41;0.10;;;0.10;;
48871;SDS011;36154;51.674;7.824;2023-11-19T03:26:09;0.20;;;0.20;;
48871;SDS011;36154;51.674;7.824;2023-11-19T03:28:35;0.20;;;0.20;;
48871;SDS011;36154;51.674;7.824;2023-11-19T03:31:04;0.47;;;0.17;;
48871;SDS011;36154;51.674;7.824;2023-11-19T03:33:29;0.10;;;0.10;;
48871;SDS011;36154;51.674;7.824;2023-11-19T03:35:56;0.10;;;0.10;;
48871;SDS011;36154;51.674;7.824;2023-11-19T03:38:21;0.95;;;0.20;;
48871;SDS011;36154;51.674;7.824;2023-11-19T03:40:47;0.10;;;0.10;;
48871;SDS011;36154;51.674;7.824;2023-11-19T03:43:13;0.10;;;0.10;;
48871;SDS011;36154;51.674;7.824;2023-11-19T03:45:38;0.10;;;0.10;;
48871;SDS011;36154;51.674;7.824;2023-11-19T03:48:03;0.10;;;0.10;;
48871;SDS011;36154;51.674;7.824;2023-11-19T03:50:29;0.10;;;0.10;;
48871;SDS011;36154;51.674;7.824;2023-11-19T03:52:54;0.10;;;0.10;;
48871;SDS011;36154;51.674;7.824;2023-11-19T03:55:19;0.10;;;0.10;;
48871;SDS011;36154;51.674;7.824;2023-11-19T03:57:45;0.10;;;0.10;;
48871;SDS011;36154;51.674;7.824;2023-11-19T04:00:12;0.20;;;0.10;;
48871;SDS011;36154;51.674;7.824;2023-11-19T04:02:39;0.32;;;0.15;;
48871;SDS011;36154;51.674;7.824;2023-11-19T04:05:05;0.10;;;0.10;;
48871;SDS011;36154;51.674;7.824;2023-11-19T04:07:31;0.13;;;0.10;;
48871;SDS011;36154;51.674;7.824;2023-11-19T04:09:57;0.10;;;0.10;;
48871;SDS011;36154;51.674;7.824;2023-11-19T04:12:22;0.05;;;0.05;;
48871;SDS011;36154;51.674;7.824;2023-11-19T04:14:47;0.10;;;0.10;;
48871;SDS011;36154;51.674;7.824;2023-11-19T04:17:12;0.20;;;0.20;;
48871;SDS011;36154;51.674;7.824;2023-11-19T04:19:38;0.17;;;0.17;;
48871;SDS011;36154;51.674;7.824;2023-11-19T04:22:06;0.10;;;0.10;;
48871;SDS011;36154;51.674;7.824;2023-11-19T04:24:31;0.10;;;0.10;;
48871;SDS011;36154;51.674;7.824;2023-11-19T04:26:56;0.10;;;0.10;;
48871;SDS011;36154;51.674;7.824;2023-11-19T04:29:22;0.10;;;0.10;;
48871;SDS011;36154;51.674;7.824;2023-11-19T04:31:47;0.10;;;0.10;;
48871;SDS011;36154;51.674;7.824;2023-11-19T04:34:12;0.10;;;0.10;;
48871;SDS011;36154;51.674;7.824;2023-11-19T04:36:38;0.10;;;0.10;;
48871;SDS011;36154;51.674;7.824;2023-11-19T04:39:03;0.28;;;0.10;;
48871;SDS011;36154;51.674;7.824;2023-11-19T04:41:50;0.30;;;0.20;;
48871;SDS011;36154;51.674;7.824;2023-11-19T04:44:19;0.20;;;0.20;;
48871;SDS011;36154;51.674;7.824;2023-11-19T04:46:45;0.10;;;0.10;;
48871;SDS011;36154;51.674;7.824;2023-11-19T04:49:11;0.52;;;0.10;;
48871;SDS011;36154;51.674;7.824;2023-11-19T04:51:43;0.20;;;0.20;;
48871;SDS011;36154;51.674;7.824;2023-11-19T04:54:09;0.10;;;0.10;;
48871;SDS011;36154;51.674;7.824;2023-11-19T04:56:35;0.10;;;0.10;;
48871;SDS011;36154;51.674;7.824;2023-11-19T04:59:02;0.10;;;0.10;;
48871;SDS011;36154;51.674;7.824;2023-11-19T05:01:27;0.10;;;0.10;;
48871;SDS011;36154;51.674;7.824;2023-11-19T05:03:53;0.10;;;0.10;;
48871;SDS011;36154;51.674;7.824;2023-11-19T05:06:18;0.17;;;0.17;;
48871;SDS011;36154;51.674;7.824;2023-11-19T05:08:44;0.10;;;0.10;;
48871;SDS011;36154;51.674;7.824;2023-11-19T05:11:09;0.40;;;0.20;;
48871;SDS011;36154;51.674;7.824;2023-11-19T05:13:37;0.20;;;0.10;;
48871;SDS011;36154;51.674;7.824;2023-11-19T05:16:03;0.40;;;0.10;;
48871;SDS011;36154;51.674;7.824;2023-11-19T05:18:28;0.45;;;0.30;;
48871;SDS011;36154;51.674;7.824;2023-11-19T05:20:54;0.10;;;0.10;;
48871;SDS011;36154;51.674;7.824;2023-11-19T05:23:19;0.20;;;0.10;;
48871;SDS011;36154;51.674;7.824;2023-11-19T05:25:45;0.20;;;0.20;;
48871;SDS011;36154;51.674;7.824;2023-11-19T05:28:10;0.38;;;0.17;;
48871;SDS011;36154;51.674;7.824;2023-11-19T05:30:36;0.10;;;0.10;;
48871;SDS011;36154;51.674;7.824;2023-11-19T05:33:01;0.10;;;0.10;;
48871;SDS011;36154;51.674;7.824;2023-11-19T05:35:26;0.50;;;0.30;;
48871;SDS011;36154;51.674;7.824;2023-11-19T05:37:51;0.10;;;0.10;;
48871;SDS011;36154;51.674;7.824;2023-11-19T05:40:17;1.13;;;0.30;;
48871;SDS011;36154;51.674;7.824;2023-11-19T05:42:43;0.57;;;0.20;;
48871;SDS011;36154;51.674;7.824;2023-11-19T05:45:10;0.35;;;0.17;;
48871;SDS011;36154;51.674;7.824;2023-11-19T05:47:36;0.57;;;0.20;;
48871;SDS011;36154;51.674;7.824;2023-11-19T05:50:02;0.20;;;0.13;;
48871;SDS011;36154;51.674;7.824;2023-11-19T05:52:28;0.50;;;0.20;;
48871;SDS011;36154;51.674;7.824;2023-11-19T05:54:58;0.50;;;0.30;;
48871;SDS011;36154;51.674;7.824;2023-11-19T05:57:23;0.55;;;0.20;;
48871;SDS011;36154;51.674;7.824;2023-11-19T05:59:50;0.10;;;0.10;;
48871;SDS011;36154;51.674;7.824;2023-11-19T06:02:15;0.80;;;0.20;;
48871;SDS011;36154;51.674;7.824;2023-11-19T06:04:41;0.43;;;0.20;;
48871;SDS011;36154;51.674;7.824;2023-11-19T06:07:09;0.47;;;0.20;;
48871;SDS011;36154;51.674;7.824;2023-11-19T06:09:34;0.40;;;0.17;;
48871;SDS011;36154;51.674;7.824;2023-11-19T06:11:59;0.45;;;0.20;;
48871;SDS011;36154;51.674;7.824;2023-11-19T06:14:27;0.95;;;0.10;;
48871;SDS011;36154;51.674;7.824;2023-11-19T06:16:52;0.38;;;0.20;;
48871;SDS011;36154;51.674;7.824;2023-11-19T06:19:18;0.20;;;0.10;;
48871;SDS011;36154;51.674;7.824;2023-11-19T06:21:43;0.28;;;0.20;;
48871;SDS011;36154;51.674;7.824;2023-11-19T06:24:08;0.25;;;0.20;;
48871;SDS011;36154;51.674;7.824;2023-11-19T06:26:34;0.47;;;0.20;;
48871;SDS011;36154;51.674;7.824;2023-11-19T06:28:59;0.55;;;0.20;;
48871;SDS011;36154;51.674;7.824;2023-11-19T06:31:24;0.28;;;0.20;;
48871;SDS011;36154;51.674;7.824;2023-11-19T06:33:50;0.20;;;0.13;;
48871;SDS011;36154;51.674;7.824;2023-11-19T06:36:15;0.25;;;0.10;;
48871;SDS011;36154;51.674;7.824;2023-11-19T06:38:43;0.85;;;0.30;;
48871;SDS011;36154;51.674;7.824;2023-11-19T06:41:08;0.63;;;0.20;;
48871;SDS011;36154;51.674;7.824;2023-11-19T06:43:34;0.77;;;0.30;;
48871;SDS011;36154;51.674;7.824;2023-11-19T06:46:00;0.88;;;0.30;;
48871;SDS011;36154;51.674;7.824;2023-11-19T06:48:26;2.20;;;0.30;;
48871;SDS011;36154;51.674;7.824;2023-11-19T06:50:52;0.50;;;0.40;;
48871;SDS011;36154;51.674;7.824;2023-11-19T06:53:17;0.77;;;0.35;;
48871;SDS011;36154;51.674;7.824;2023-11-19T06:55:42;0.85;;;0.63;;
48871;SDS011;36154;51.674;7.824;2023-11-19T06:58:08;0.30;;;0.30;;
48871;SDS011;36154;51.674;7.824;2023-11-19T07:00:33;0.65;;;0.40;;
48871;SDS011;36154;51.674;7.824;2023-11-19T07:03:00;0.60;;;0.35;;
48871;SDS011;36154;51.674;7.824;2023-11-19T07:05:26;0.32;;;0.20;;
48871;SDS011;36154;51.674;7.824;2023-11-19T07:07:51;0.77;;;0.30;;
48871;SDS011;36154;51.674;7.824;2023-11-19T07:10:16;0.73;;;0.30;;
48871;SDS011;36154;51.674;7.824;2023-11-19T07:12:42;0.82;;;0.50;;
48871;SDS011;36154;51.674;7.824;2023-11-19T07:15:07;0.20;;;0.15;;
48871;SDS011;36154;51.674;7.824;2023-11-19T07:17:33;1.35;;;0.47;;
48871;SDS011;36154;51.674;7.824;2023-11-19T07:20:00;0.40;;;0.25;;
48871;SDS011;36154;51.674;7.824;2023-11-19T07:22:25;0.70;;;0.35;;
48871;SDS011;36154;51.674;7.824;2023-11-19T07:24:51;0.70;;;0.40;;
48871;SDS011;36154;51.674;7.824;2023-11-19T07:27:18;0.47;;;0.30;;
48871;SDS011;36154;51.674;7.824;2023-11-19T07:29:43;0.40;;;0.30;;
48871;SDS011;36154;51.674;7.824;2023-11-19T07:32:09;0.47;;;0.30;;
48871;SDS011;36154;51.674;7.824;2023-11-19T07:34:35;0.70;;;0.30;;
48871;SDS011;36154;51.674;7.824;2023-11-19T07:37:00;0.55;;;0.45;;
48871;SDS011;36154;51.674;7.824;2023-11-19T07:39:27;0.98;;;0.40;;
48871;SDS011;36154;51.674;7.824;2023-11-19T07:41:53;0.60;;;0.30;;
48871;SDS011;36154;51.674;7.824;2023-11-19T07:44:19;1.08;;;0.40;;
48871;SDS011;36154;51.674;7.824;2023-11-19T07:46:44;0.38;;;0.25;;
48871;SDS011;36154;51.674;7.824;2023-11-19T07:49:10;1.42;;;0.45;;
48871;SDS011;36154;51.674;7.824;2023-11-19T07:51:35;0.88;;;0.30;;
48871;SDS011;36154;51.674;7.824;2023-11-19T07:54:01;1.77;;;0.52;;
48871;SDS011;36154;51.674;7.824;2023-11-19T07:56:26;0.30;;;0.20;;
48871;SDS011;36154;51.674;7.824;2023-11-19T07:58:52;0.63;;;0.32;;
48871;SDS011;36154;51.674;7.824;2023-11-19T08:01:17;1.25;;;0.40;;
48871;SDS011;36154;51.674;7.824;2023-11-19T08:03:43;0.85;;;0.50;;
48871;SDS011;36154;51.674;7.824;2023-11-19T08:06:08;1.23;;;0.30;;
48871;SDS011;36154;51.674;7.824;2023-11-19T08:08:33;0.28;;;0.28;;
48871;SDS011;36154;51.674;7.824;2023-11-19T08:10:59;0.40;;;0.30;;
48871;SDS011;36154;51.674;7.824;2023-11-19T08:13:25;0.90;;;0.40;;
48871;SDS011;36154;51.674;7.824;2023-11-19T08:15:51;0.57;;;0.40;;
48871;SDS011;36154;51.674;7.824;2023-11-19T08:18:16;0.50;;;0.25;;
48871;SDS011;36154;51.674;7.824;2023-11-19T08:20:43;1.08;;;0.50;;
48871;SDS011;36154;51.674;7.824;2023-11-19T08:23:09;0.52;;;0.30;;
48871;SDS011;36154;51.674;7.824;2023-11-19T08:25:35;0.47;;;0.35;;
48871;SDS011;36154;51.674;7.824;2023-11-19T08:28:00;0.90;;;0.40;;
48871;SDS011;36154;51.674;7.824;2023-11-19T08:30:26;0.80;;;0.40;;
48871;SDS011;36154;51.674;7.824;2023-11-19T08:32:52;0.80;;;0.45;;
48871;SDS011;36154;51.674;7.824;2023-11-19T08:35:17;16.27;;;3.83;;
48871;SDS011;36154;51.674;7.824;2023-11-19T08:37:42;17.30;;;3.83;;
48871;SDS011;36154;51.674;7.824;2023-11-19T08:40:08;19.50;;;4.13;;
48871;SDS011;36154;51.674;7.824;2023-11-19T08:42:34;17.95;;;4.10;;
48871;SDS011;36154;51.674;7.824;2023-11-19T08:44:59;16.42;;;3.60;;
48871;SDS011;36154;51.674;7.824;2023-11-19T08:47:25;12.23;;;3.03;;
48871;SDS011;36154;51.674;7.824;2023-11-19T08:49:51;14.15;;;3.00;;
48871;SDS011;36154;51.674;7.824;2023-11-19T08:52:17;11.50;;;2.75;;
48871;SDS011;36154;51.674;7.824;2023-11-19T08:54:43;9.30;;;2.47;;
48871;SDS011;36154;51.674;7.824;2023-11-19T08:57:08;8.38;;;2.08;;
48871;SDS011;36154;51.674;7.824;2023-11-19T08:59:34;13.68;;;2.80;;
48871;SDS011;36154;51.674;7.824;2023-11-19T09:01:59;11.93;;;2.88;;
48871;SDS011;36154;51.674;7.824;2023-11-19T09:04:25;10.73;;;2.63;;
48871;SDS011;36154;51.674;7.824;2023-11-19T09:06:50;9.40;;;2.40;;
48871;SDS011;36154;51.674;7.824;2023-11-19T09:09:15;8.05;;;2.28;;
48871;SDS011;36154;51.674;7.824;2023-11-19T09:11:41;9.13;;;2.53;;
48871;SDS011;36154;51.674;7.824;2023-11-19T09:14:07;5.75;;;2.25;;
48871;SDS011;36154;51.674;7.824;2023-11-19T09:16:32;6.20;;;2.05;;
48871;SDS011;36154;51.674;7.824;2023-11-19T09:18:58;6.05;;;2.17;;
48871;SDS011;36154;51.674;7.824;2023-11-19T09:21:24;5.63;;;1.70;;
48871;SDS011;36154;51.674;7.824;2023-11-19T09:23:54;6.70;;;1.92;;
48871;SDS011;36154;51.674;7.824;2023-11-19T09:26:20;5.10;;;1.75;;
48871;SDS011;36154;51.674;7.824;2023-11-19T09:28:45;6.45;;;1.92;;
48871;SDS011;36154;51.674;7.824;2023-11-19T09:31:17;4.78;;;1.83;;
48871;SDS011;36154;51.674;7.824;2023-11-19T09:33:42;3.90;;;1.63;;
48871;SDS011;36154;51.674;7.824;2023-11-19T09:36:08;4.43;;;1.92;;
48871;SDS011;36154;51.674;7.824;2023-11-19T09:38:35;3.28;;;1.80;;
48871;SDS011;36154;51.674;7.824;2023-11-19T09:41:03;3.75;;;1.80;;
48871;SDS011;36154;51.674;7.824;2023-11-19T09:43:33;6.65;;;2.05;;
48871;SDS011;36154;51.674;7.824;2023-11-19T09:45:59;3.60;;;1.70;;
48871;SDS011;36154;51.674;7.824;2023-11-19T09:48:32;8.13;;;1.67;;
48871;SDS011;36154;51.674;7.824;2023-11-19T09:50:58;3.15;;;1.30;;
48871;SDS011;36154;51.674;7.824;2023-11-19T09:53:24;3.20;;;1.35;;
48871;SDS011;36154;51.674;7.824;2023-11-19T09:55:49;4.47;;;1.52;;
48871;SDS011;36154;51.674;7.824;2023-11-19T09:58:16;4.50;;;1.83;;
48871;SDS011;36154;51.674;7.824;2023-11-19T10:00:42;4.35;;;1.60;;
48871;SDS011;36154;51.674;7.824;2023-11-19T10:03:08;2.53;;;1.38;;
48871;SDS011;36154;51.674;7.824;2023-11-19T10:05:36;3.25;;;1.30;;
48871;SDS011;36154;51.674;7.824;2023-11-19T10:08:03;4.22;;;1.73;;
48871;SDS011;36154;51.674;7.824;2023-11-19T10:10:28;3.55;;;1.50;;
48871;SDS011;36154;51.674;7.824;2023-11-19T10:12:54;3.28;;;1.63;;
48871;SDS011;36154;51.674;7.824;2023-11-19T10:15:20;2.75;;;1.30;;
48871;SDS011;36154;51.674;7.824;2023-11-19T10:17:47;1.67;;;1.10;;
48871;SDS011;36154;51.674;7.824;2023-11-19T10:20:13;3.40;;;1.50;;
48871;SDS011;36154;51.674;7.824;2023-11-19T10:22:38;3.90;;;1.48;;
48871;SDS011;36154;51.674;7.824;2023-11-19T10:25:04;3.50;;;1.45;;
48871;SDS011;36154;51.674;7.824;2023-11-19T10:27:30;4.97;;;1.00;;
48871;SDS011;36154;51.674;7.824;2023-11-19T10:29:59;5.63;;;1.27;;
48871;SDS011;36154;51.674;7.824;2023-11-19T10:32:24;6.32;;;1.23;;
48871;SDS011;36154;51.674;7.824;2023-11-19T10:34:50;5.13;;;1.52;;
48871;SDS011;36154;51.674;7.824;2023-11-19T10:37:33;3.65;;;1.13;;
48871;SDS011;36154;51.674;7.824;2023-11-19T10:40:02;2.45;;;1.05;;
48871;SDS011;36154;51.674;7.824;2023-11-19T10:42:30;1.92;;;1.00;;
48871;SDS011;36154;51.674;7.824;2023-11-19T10:44:55;2.30;;;0.90;;
48871;SDS011;36154;51.674;7.824;2023-11-19T10:47:21;1.23;;;0.93;;
48871;SDS011;36154;51.674;7.824;2023-11-19T10:49:47;5.28;;;1.15;;
48871;SDS011;36154;51.674;7.824;2023-11-19T10:52:14;1.88;;;1.00;;
48871;SDS011;36154;51.674;7.824;2023-11-19T10:54:43;1.52;;;0.93;;
48871;SDS011;36154;51.674;7.824;2023-11-19T10:57:13;2.72;;;0.98;;
48871;SDS011;36154;51.674;7.824;2023-11-19T10:59:45;3.20;;;1.17;;
48871;SDS011;36154;51.674;7.824;2023-11-19T11:02:12;2.17;;;0.93;;
48871;SDS011;36154;51.674;7.824;2023-11-19T11:04:41;3.90;;;1.10;;
48871;SDS011;36154;51.674;7.824;2023-11-19T11:07:07;1.23;;;0.80;;
48871;SDS011;36154;51.674;7.824;2023-11-19T11:09:33;2.30;;;0.88;;
48871;SDS011;36154;51.674;7.824;2023-11-19T11:11:59;1.08;;;0.60;;
48871;SDS011;36154;51.674;7.824;2023-11-19T11:14:25;1.63;;;0.98;;
48871;SDS011;36154;51.674;7.824;2023-11-19T11:16:52;2.17;;;1.00;;
48871;SDS011;36154;51.674;7.824;2023-11-19T11:19:18;0.95;;;0.80;;
48871;SDS011;36154;51.674;7.824;2023-11-19T11:21:45;1.90;;;0.88;;
48871;SDS011;36154;51.674;7.824;2023-11-19T11:37:50;1.20;;;0.85;;
48871;SDS011;36154;51.674;7.824;2023-11-19T11:40:22;1.75;;;0.80;;
48871;SDS011;36154;51.674;7.824;2023-11-19T11:42:48;3.03;;;1.00;;
48871;SDS011;36154;51.674;7.824;2023-11-19T11:45:16;3.28;;;1.00;;
48871;SDS011;36154;51.674;7.824;2023-11-19T11:50:08;1.45;;;0.95;;
48871;SDS011;36154;51.674;7.824;2023-11-19T11:58:01;1.00;;;0.70;;
48871;SDS011;36154;51.674;7.824;2023-11-19T12:00:27;2.47;;;0.80;;
48871;SDS011;36154;51.674;7.824;2023-11-19T12:02:55;2.17;;;0.85;;
48871;SDS011;36154;51.674;7.824;2023-11-19T12:05:22;1.83;;;0.85;;
48871;SDS011;36154;51.674;7.824;2023-11-19T12:07:54;1.40;;;0.70;;
48871;SDS011;36154;51.674;7.824;2023-11-19T12:10:20;2.17;;;1.08;;
48871;SDS011;36154;51.674;7.824;2023-11-19T12:12:47;2.22;;;0.60;;
48871;SDS011;36154;51.674;7.824;2023-11-19T12:15:12;2.25;;;0.98;;
48871;SDS011;36154;51.674;7.824;2023-11-19T12:17:46;3.10;;;1.30;;
48871;SDS011;36154;51.674;7.824;2023-11-19T12:20:16;5.25;;;0.93;;
48871;SDS011;36154;51.674;7.824;2023-11-19T12:22:51;2.83;;;1.00;;
48871;SDS011;36154;51.674;7.824;2023-11-19T12:25:18;2.50;;;1.10;;
48871;SDS011;36154;51.674;7.824;2023-11-19T12:27:46;2.47;;;0.90;;
48871;SDS011;36154;51.674;7.824;2023-11-19T12:30:12;4.40;;;1.00;;
48871;SDS011;36154;51.674;7.824;2023-11-19T12:32:42;2.10;;;0.85;;
48871;SDS011;36154;51.674;7.824;2023-11-19T12:35:11;1.52;;;0.80;;
48871;SDS011;36154;51.674;7.824;2023-11-19T12:37:41;1.63;;;0.90;;
48871;SDS011;36154;51.674;7.824;2023-11-19T12:40:20;1.33;;;0.63;;
48871;SDS011;36154;51.674;7.824;2023-11-19T12:42:51;2.13;;;1.08;;
48871;SDS011;36154;51.674;7.824;2023-11-19T12:45:18;4.88;;;0.93;;
48871;SDS011;36154;51.674;7.824;2023-11-19T12:47:45;1.98;;;0.75;;
48871;SDS011;36154;51.674;7.824;2023-11-19T12:50:12;1.73;;;0.90;;
48871;SDS011;36154;51.674;7.824;2023-11-19T12:52:39;2.65;;;1.58;;
48871;SDS011;36154;51.674;7.824;2023-11-19T12:55:05;2.58;;;1.02;;
48871;SDS011;36154;51.674;7.824;2023-11-19T12:57:48;1.98;;;1.13;;
48871;SDS011;36154;51.674;7.824;2023-11-19T13:00:21;1.33;;;0.73;;
48871;SDS011;36154;51.674;7.824;2023-11-19T13:02:48;1.63;;;0.77;;
48871;SDS011;36154;51.674;7.824;2023-11-19T13:05:24;1.02;;;0.70;;
48871;SDS011;36154;51.674;7.824;2023-11-19T13:08:02;1.77;;;0.65;;
48871;SDS011;36154;51.674;7.824;2023-11-19T13:10:29;2.47;;;0.73;;
48871;SDS011;36154;51.674;7.824;2023-11-19T13:13:02;1.88;;;0.85;;
48871;SDS011;36154;51.674;7.824;2023-11-19T13:15:29;1.55;;;0.90;;
48871;SDS011;36154;51.674;7.824;2023-11-19T13:17:54;1.90;;;0.88;;
48871;SDS011;36154;51.674;7.824;2023-11-19T13:20:19;1.65;;;0.73;;
48871;SDS011;36154;51.674;7.824;2023-11-19T13:22:55;1.00;;;0.90;;
48871;SDS011;36154;51.674;7.824;2023-11-19T13:25:21;0.75;;;0.63;;
48871;SDS011;36154;51.674;7.824;2023-11-19T13:27:46;1.60;;;0.80;;
48871;SDS011;36154;51.674;7.824;2023-11-19T13:30:12;1.05;;;0.70;;
48871;SDS011;36154;51.674;7.824;2023-11-19T13:32:38;2.55;;;0.70;;
48871;SDS011;36154;51.674;7.824;2023-11-19T13:35:04;0.93;;;0.75;;
48871;SDS011;36154;51.674;7.824;2023-11-19T13:37:30;1.25;;;0.50;;
48871;SDS011;36154;51.674;7.824;2023-11-19T13:39:55;2.08;;;1.00;;
48871;SDS011;36154;51.674;7.824;2023-11-19T13:42:20;5.00;;;1.20;;
48871;SDS011;36154;51.674;7.824;2023-11-19T13:44:46;1.50;;;0.90;;
48871;SDS011;36154;51.674;7.824;2023-11-19T13:47:11;2.03;;;0.65;;
48871;SDS011;36154;51.674;7.824;2023-11-19T13:49:39;2.33;;;0.98;;
48871;SDS011;36154;51.674;7.824;2023-11-19T13:52:04;1.67;;;0.90;;
48871;SDS011;36154;51.674;7.824;2023-11-19T13:54:30;1.05;;;0.75;;
48871;SDS011;36154;51.674;7.824;2023-11-19T13:56:55;1.63;;;0.90;;
48871;SDS011;36154;51.674;7.824;2023-11-19T13:59:23;1.85;;;0.93;;
48871;SDS011;36154;51.674;7.824;2023-11-19T14:01:48;1.52;;;0.85;;
48871;SDS011;36154;51.674;7.824;2023-11-19T14:04:14;1.70;;;0.55;;
48871;SDS011;36154;51.674;7.824;2023-11-19T14:06:39;1.15;;;0.88;;
48871;SDS011;36154;51.674;7.824;2023-11-19T14:09:06;2.30;;;0.80;;
48871;SDS011;36154;51.674;7.824;2023-11-19T14:11:32;1.48;;;0.80;;
48871;SDS011;36154;51.674;7.824;2023-11-19T14:13:57;3.28;;;0.80;;
48871;SDS011;36154;51.674;7.824;2023-11-19T14:16:26;1.15;;;0.70;;
48871;SDS011;36154;51.674;7.824;2023-11-19T14:18:51;1.45;;;0.75;;
48871;SDS011;36154;51.674;7.824;2023-11-19T14:21:16;1.20;;;0.80;;
48871;SDS011;36154;51.674;7.824;2023-11-19T14:23:42;1.40;;;0.75;;
48871;SDS011;36154;51.674;7.824;2023-11-19T14:26:07;2.10;;;0.80;;
48871;SDS011;36154;51.674;7.824;2023-11-19T14:28:33;1.92;;;0.82;;
48871;SDS011;36154;51.674;7.824;2023-11-19T14:31:00;1.67;;;0.93;;
48871;SDS011;36154;51.674;7.824;2023-11-19T14:33:25;1.40;;;0.50;;
48871;SDS011;36154;51.674;7.824;2023-11-19T14:35:50;1.83;;;0.63;;
48871;SDS011;36154;51.674;7.824;2023-11-19T14:38:17;1.08;;;0.70;;
48871;SDS011;36154;51.674;7.824;2023-11-19T14:40:42;1.25;;;0.63;;
48871;SDS011;36154;51.674;7.824;2023-11-19T14:43:08;0.90;;;0.52;;
48871;SDS011;36154;51.674;7.824;2023-11-19T14:45:35;2.00;;;0.90;;
48871;SDS011;36154;51.674;7.824;2023-11-19T14:48:00;1.85;;;0.90;;
48871;SDS011;36154;51.674;7.824;2023-11-19T14:50:26;0.70;;;0.50;;
48871;SDS011;36154;51.674;7.824;2023-11-19T14:52:51;1.33;;;0.80;;
48871;SDS011;36154;51.674;7.824;2023-11-19T14:55:16;0.82;;;0.50;;
48871;SDS011;36154;51.674;7.824;2023-11-19T14:57:42;0.82;;;0.57;;
48871;SDS011;36154;51.674;7.824;2023-11-19T15:00:09;0.80;;;0.50;;
48871;SDS011;36154;51.674;7.824;2023-11-19T15:02:38;1.95;;;0.68;;
48871;SDS011;36154;51.674;7.824;2023-11-19T15:05:07;2.17;;;0.80;;